Time;durP1;ratioP1;P1;durP2;ratioP2;P2;SDS_P1;SDS_P2;PMS_P1;PMS_P2;Temp;Humidity;BMP_temperature;BMP_pressure;BME280_temperature;BME280_humidity;BME280_pressure;Samples;Min_cycle;Max_cycle;Signal;HPM_P1;HPM_P2
2023/10/12 00:00:27;;;;;;;27.77;18.45;;;;;;;;;;5041776;28;20232;-75
2023/10/12 00:02:57;;;;;;;26.25;17.80;;;;;;;;;;5042906;28;20201;-75
2023/10/12 00:05:27;;;;;;;30.33;18.77;;;;;;;;;;5041774;28;20196;-75
2023/10/12 00:07:55;;;;;;;33.78;19.15;;;;;;;;;;5042735;28;20197;-75
2023/10/12 00:10:21;;;;;;;30.15;18.35;;;;;;;;;;5049813;28;20182;-76
2023/10/12 00:12:50;;;;;;;27.75;18.65;;;;;;;;;;5057173;28;20194;-76
2023/10/12 00:17:44;;;;;;;33.15;20.48;;;;;;;;;;5085745;28;20236;-76
2023/10/12 00:20:21;;;;;;;29.98;19.10;;;;;;;;;;5053457;28;20260;-76
2023/10/12 00:22:46;;;;;;;32.38;18.73;;;;;;;;;;5063464;28;20200;-76
2023/10/12 00:25:16;;;;;;;34.08;20.65;;;;;;;;;;5049776;28;20194;-77
2023/10/12 00:27:41;;;;;;;29.77;19.23;;;;;;;;;;5059485;28;20273;-77
2023/10/12 00:30:08;;;;;;;33.03;20.40;;;;;;;;;;5039937;28;20269;-76
2023/10/12 00:32:34;;;;;;;33.42;20.67;;;;;;;;;;5041533;28;20280;-73
2023/10/12 00:34:59;;;;;;;36.70;20.55;;;;;;;;;;5046490;28;20189;-72
2023/10/12 00:37:24;;;;;;;32.33;21.55;;;;;;;;;;5052933;28;20241;-72
2023/10/12 00:40:21;;;;;;;40.13;21.33;;;;;;;;;;5047585;28;20646;-74
2023/10/12 00:42:51;;;;;;;30.30;19.45;;;;;;;;;;5052932;28;20204;-77
2023/10/12 00:45:20;;;;;;;34.45;20.90;;;;;;;;;;5052613;28;20656;-78
2023/10/12 00:47:48;;;;;;;35.38;22.13;;;;;;;;;;5057756;28;20268;-75
2023/10/12 00:50:14;;;;;;;33.75;21.60;;;;;;;;;;5078874;28;20188;-76
2023/10/12 00:52:56;;;;;;;35.88;21.73;;;;;;;;;;5080639;28;20194;-76
2023/10/12 00:55:35;;;;;;;38.30;23.33;;;;;;;;;;5090153;28;20272;-75
2023/10/12 00:58:04;;;;;;;40.40;22.95;;;;;;;;;;5052403;28;20217;-76
2023/10/12 01:00:35;;;;;;;36.72;24.40;;;;;;;;;;5050637;28;20505;-74
2023/10/12 01:03:26;;;;;;;38.08;23.73;;;;;;;;;;5053291;28;20204;-74
2023/10/12 01:06:12;;;;;;;40.33;23.88;;;;;;;;;;5046941;28;20193;-74
2023/10/12 01:08:42;;;;;;;37.55;24.60;;;;;;;;;;5064845;28;20193;-74
2023/10/12 01:11:08;;;;;;;41.92;25.75;;;;;;;;;;5070718;28;20189;-73
2023/10/12 01:13:34;;;;;;;46.65;26.90;;;;;;;;;;5065548;28;20252;-74
2023/10/12 01:16:20;;;;;;;49.83;27.90;;;;;;;;;;5062635;28;20201;-73
2023/10/12 01:18:46;;;;;;;46.85;26.92;;;;;;;;;;5047410;28;20217;-74
2023/10/12 01:21:11;;;;;;;33.45;21.40;;;;;;;;;;5046644;28;20257;-73
2023/10/12 01:23:41;;;;;;;35.47;20.98;;;;;;;;;;5039541;28;20526;-73
2023/10/12 01:26:10;;;;;;;37.60;20.55;;;;;;;;;;5079273;28;20255;-72
2023/10/12 01:28:36;;;;;;;27.60;15.38;;;;;;;;;;5048236;28;20186;-72
2023/10/12 01:31:03;;;;;;;22.08;13.50;;;;;;;;;;5041244;28;20185;-73
2023/10/12 01:33:30;;;;;;;15.18;8.60;;;;;;;;;;5047237;28;20197;-73
2023/10/12 01:35:56;;;;;;;15.30;7.38;;;;;;;;;;5034466;28;20265;-73
2023/10/12 01:38:22;;;;;;;13.45;7.03;;;;;;;;;;5069981;28;20228;-73
2023/10/12 01:43:17;;;;;;;7.60;4.60;;;;;;;;;;5064844;28;20185;-72
2023/10/12 01:45:43;;;;;;;7.68;4.50;;;;;;;;;;5050711;28;20242;-73
2023/10/12 01:48:12;;;;;;;9.18;4.85;;;;;;;;;;5039802;28;20196;-73
2023/10/12 01:50:39;;;;;;;7.30;4.38;;;;;;;;;;5050663;28;20283;-73
2023/10/12 01:53:09;;;;;;;10.52;4.43;;;;;;;;;;5049904;28;20243;-72
2023/10/12 01:55:35;;;;;;;7.65;4.65;;;;;;;;;;5050544;28;20515;-73
2023/10/12 01:58:04;;;;;;;10.18;4.30;;;;;;;;;;5055993;28;20212;-73
2023/10/12 02:00:41;;;;;;;8.30;4.10;;;;;;;;;;5050589;28;20198;-74
2023/10/12 02:06:03;;;;;;;9.27;3.45;;;;;;;;;;5064917;28;20227;-73
2023/10/12 02:08:32;;;;;;;4.45;2.38;;;;;;;;;;5053442;28;20187;-72
2023/10/12 02:11:06;;;;;;;3.60;1.83;;;;;;;;;;5072316;28;20627;-72
2023/10/12 02:13:36;;;;;;;2.35;1.52;;;;;;;;;;5055074;28;20200;-73
2023/10/12 02:16:12;;;;;;;1.85;1.50;;;;;;;;;;5050060;28;20610;-73
2023/10/12 02:18:38;;;;;;;5.28;1.50;;;;;;;;;;5066072;28;20239;-72
2023/10/12 02:23:38;;;;;;;3.40;1.23;;;;;;;;;;5049566;28;20229;-73
2023/10/12 02:26:29;;;;;;;4.03;1.30;;;;;;;;;;5065900;28;20181;-72
2023/10/12 02:29:01;;;;;;;2.25;1.15;;;;;;;;;;5071999;28;20264;-72
2023/10/12 02:31:30;;;;;;;5.22;1.42;;;;;;;;;;5078830;28;20249;-72
2023/10/12 02:33:56;;;;;;;1.95;1.20;;;;;;;;;;5047338;28;20189;-73
2023/10/12 02:36:22;;;;;;;5.72;1.40;;;;;;;;;;5049795;28;20613;-73
2023/10/12 02:38:47;;;;;;;4.28;1.45;;;;;;;;;;5053487;28;20221;-73
2023/10/12 02:41:13;;;;;;;6.28;1.40;;;;;;;;;;5057657;28;20251;-72
2023/10/12 02:43:41;;;;;;;6.13;1.40;;;;;;;;;;5054713;28;20189;-72
2023/10/12 02:46:06;;;;;;;5.32;1.42;;;;;;;;;;5050224;28;20282;-73
2023/10/12 02:48:36;;;;;;;14.50;2.80;;;;;;;;;;5046093;28;20185;-72
2023/10/12 02:51:06;;;;;;;13.18;2.42;;;;;;;;;;5033726;28;20197;-72
2023/10/12 02:53:34;;;;;;;7.50;2.00;;;;;;;;;;5050459;28;20229;-72
2023/10/12 02:56:01;;;;;;;8.10;1.58;;;;;;;;;;5058148;28;20197;-72
2023/10/12 02:58:27;;;;;;;6.93;1.70;;;;;;;;;;5034764;28;20210;-72
2023/10/12 03:01:12;;;;;;;10.77;1.67;;;;;;;;;;5043985;28;20209;-72
2023/10/12 03:03:39;;;;;;;8.82;1.90;;;;;;;;;;5050564;28;20636;-72
2023/10/12 03:06:08;;;;;;;13.23;1.98;;;;;;;;;;5049060;28;20229;-72
2023/10/12 03:08:46;;;;;;;8.23;2.30;;;;;;;;;;5077031;28;20633;-72
2023/10/12 03:11:19;;;;;;;9.48;1.85;;;;;;;;;;5034501;28;20189;-73
2023/10/12 03:13:54;;;;;;;11.05;2.35;;;;;;;;;;5045217;28;20536;-73
2023/10/12 03:18:45;;;;;;;12.05;2.10;;;;;;;;;;5063068;28;20205;-73
2023/10/12 03:21:11;;;;;;;20.65;2.10;;;;;;;;;;5036924;28;20489;-73
2023/10/12 03:23:43;;;;;;;16.00;2.08;;;;;;;;;;5062565;28;20201;-73
2023/10/12 03:28:46;;;;;;;15.85;2.65;;;;;;;;;;5046214;28;20189;-73
2023/10/12 03:31:22;;;;;;;22.08;2.65;;;;;;;;;;5041582;28;20227;-73
2023/10/12 03:33:54;;;;;;;20.20;2.80;;;;;;;;;;5066827;28;20593;-73
2023/10/12 03:36:32;;;;;;;15.50;2.38;;;;;;;;;;5039309;28;20263;-73
2023/10/12 03:39:13;;;;;;;17.20;2.33;;;;;;;;;;5038267;28;20301;-73
2023/10/12 03:44:24;;;;;;;14.73;2.83;;;;;;;;;;5039282;28;20608;-72
2023/10/12 03:47:04;;;;;;;13.10;2.30;;;;;;;;;;5034386;28;20672;-71
2023/10/12 03:51:59;;;;;;;12.18;2.50;;;;;;;;;;5050315;28;20255;-71
2023/10/12 03:54:34;;;;;;;13.82;2.42;;;;;;;;;;5040141;28;20570;-70
2023/10/12 03:57:19;;;;;;;20.70;3.40;;;;;;;;;;5040455;28;20230;-71
2023/10/12 03:59:59;;;;;;;10.40;2.40;;;;;;;;;;5037210;28;20200;-72
2023/10/12 04:02:25;;;;;;;15.65;2.60;;;;;;;;;;5047711;28;20240;-72
2023/10/12 04:05:02;;;;;;;16.70;2.42;;;;;;;;;;5047672;28;20239;-73
2023/10/12 04:07:39;;;;;;;17.25;2.85;;;;;;;;;;5043499;28;20540;-73
2023/10/12 04:10:23;;;;;;;12.18;2.40;;;;;;;;;;5038726;28;20178;-73
2023/10/12 04:13:06;;;;;;;13.02;2.60;;;;;;;;;;5044459;28;20536;-73
2023/10/12 04:15:37;;;;;;;13.90;2.40;;;;;;;;;;5042002;28;20695;-72
2023/10/12 04:18:07;;;;;;;14.55;2.33;;;;;;;;;;5044954;28;20303;-72
2023/10/12 04:20:33;;;;;;;11.05;2.20;;;;;;;;;;5058084;28;20213;-73
2023/10/12 04:23:15;;;;;;;16.63;2.20;;;;;;;;;;5046364;28;20247;-73
2023/10/12 04:25:47;;;;;;;14.00;2.40;;;;;;;;;;5049205;28;20189;-73
2023/10/12 04:28:32;;;;;;;11.15;2.67;;;;;;;;;;5048120;28;20596;-73
2023/10/12 04:33:29;;;;;;;11.43;2.20;;;;;;;;;;5043657;28;20189;-72
2023/10/12 04:36:23;;;;;;;13.52;2.78;;;;;;;;;;5044212;28;20189;-73
2023/10/12 04:38:57;;;;;;;13.35;2.47;;;;;;;;;;5080469;28;20431;-73
2023/10/12 04:41:23;;;;;;;17.98;2.80;;;;;;;;;;5046912;28;20193;-72
2023/10/12 04:44:17;;;;;;;20.00;3.20;;;;;;;;;;5061529;28;20178;-73
2023/10/12 04:46:48;;;;;;;14.82;3.03;;;;;;;;;;5052913;28;20658;-72
2023/10/12 04:51:41;;;;;;;11.18;2.95;;;;;;;;;;5074286;28;20193;-72
2023/10/12 04:54:17;;;;;;;15.88;3.10;;;;;;;;;;5045008;28;20718;-72
2023/10/12 05:09:35;;;;;;;14.25;2.60;;;;;;;;;;5049582;28;20186;-71
2023/10/12 05:12:00;;;;;;;11.68;2.80;;;;;;;;;;5068328;28;20189;-71
2023/10/12 05:14:26;;;;;;;12.15;2.80;;;;;;;;;;5091326;28;20173;-71
2023/10/12 05:16:51;;;;;;;10.93;3.00;;;;;;;;;;5060210;28;20593;-71
2023/10/12 05:19:17;;;;;;;11.73;2.80;;;;;;;;;;5049891;28;20496;-71
2023/10/12 05:21:43;;;;;;;13.60;2.80;;;;;;;;;;5081824;28;20189;-71
2023/10/12 05:24:09;;;;;;;11.90;2.97;;;;;;;;;;5081812;28;20193;-71
2023/10/12 05:26:37;;;;;;;11.13;2.95;;;;;;;;;;5049379;28;20205;-71
2023/10/12 05:31:58;;;;;;;15.02;2.95;;;;;;;;;;5047893;28;20287;-71
2023/10/12 05:34:32;;;;;;;12.68;3.58;;;;;;;;;;5050676;28;20186;-71
2023/10/12 05:37:17;;;;;;;10.02;3.25;;;;;;;;;;5049440;28;20185;-71
2023/10/12 05:39:51;;;;;;;14.43;2.92;;;;;;;;;;5051017;28;20233;-71
2023/10/12 05:42:19;;;;;;;9.30;3.10;;;;;;;;;;5053033;28;20265;-71
2023/10/12 05:44:49;;;;;;;10.07;3.15;;;;;;;;;;5049902;28;21381;-72
2023/10/12 05:47:28;;;;;;;15.00;3.50;;;;;;;;;;5050354;28;20174;-72
2023/10/12 05:49:53;;;;;;;12.55;3.03;;;;;;;;;;5056423;28;20554;-72
2023/10/12 05:52:19;;;;;;;9.90;3.13;;;;;;;;;;5063082;28;20288;-72
2023/10/12 05:54:44;;;;;;;17.13;3.30;;;;;;;;;;5078895;28;20232;-73
2023/10/12 05:57:25;;;;;;;11.00;3.38;;;;;;;;;;5077197;28;20637;-73
2023/10/12 05:59:50;;;;;;;13.68;3.17;;;;;;;;;;5041182;28;20273;-73
2023/10/12 06:02:19;;;;;;;13.15;4.20;;;;;;;;;;5051543;28;20644;-72
2023/10/12 06:04:45;;;;;;;12.55;3.67;;;;;;;;;;5084430;28;20553;-72
2023/10/12 06:07:11;;;;;;;12.35;3.45;;;;;;;;;;5061468;28;20182;-73
2023/10/12 06:09:37;;;;;;;11.50;3.88;;;;;;;;;;5047892;28;20185;-72
2023/10/12 06:12:08;;;;;;;15.10;3.97;;;;;;;;;;5062002;28;20512;-72
2023/10/12 06:14:34;;;;;;;11.98;4.25;;;;;;;;;;5042529;28;20185;-72
2023/10/12 06:17:27;;;;;;;11.77;4.10;;;;;;;;;;5056090;28;20229;-72
2023/10/12 06:19:54;;;;;;;13.65;4.60;;;;;;;;;;5058700;28;20257;-72
2023/10/12 06:22:20;;;;;;;16.05;4.47;;;;;;;;;;5047989;28;20265;-72
2023/10/12 06:24:49;;;;;;;12.00;4.20;;;;;;;;;;5045918;28;20197;-72
2023/10/12 06:29:47;;;;;;;14.07;3.10;;;;;;;;;;5039939;28;20598;-72
2023/10/12 06:32:19;;;;;;;11.57;3.13;;;;;;;;;;5076062;28;20217;-72
2023/10/12 06:34:46;;;;;;;9.55;3.03;;;;;;;;;;5042982;28;20191;-72
2023/10/12 06:37:49;;;;;;;11.93;3.00;;;;;;;;;;5044109;28;20209;-72
2023/10/12 06:42:44;;;;;;;11.85;3.63;;;;;;;;;;5055193;28;20200;-72
2023/10/12 06:45:10;;;;;;;11.98;2.88;;;;;;;;;;5039710;28;20555;-72
2023/10/12 06:47:41;;;;;;;13.45;3.17;;;;;;;;;;5058415;28;20181;-72
2023/10/12 06:50:16;;;;;;;7.88;3.20;;;;;;;;;;5059571;28;20264;-72
2023/10/12 06:52:43;;;;;;;8.00;3.30;;;;;;;;;;5069521;28;20250;-72
2023/10/12 06:55:09;;;;;;;12.82;3.10;;;;;;;;;;5067987;28;20190;-72
2023/10/12 06:57:43;;;;;;;11.77;3.00;;;;;;;;;;5052367;28;20767;-72
2023/10/12 07:02:35;;;;;;;16.15;3.00;;;;;;;;;;5050105;28;20210;-72
2023/10/12 07:05:04;;;;;;;10.10;2.42;;;;;;;;;;5045365;28;20905;-72
2023/10/12 07:07:41;;;;;;;9.85;2.10;;;;;;;;;;5051046;28;20659;-71
2023/10/12 07:12:45;;;;;;;10.27;2.00;;;;;;;;;;5091372;28;20640;-71
2023/10/12 07:15:19;;;;;;;6.72;1.70;;;;;;;;;;5067891;28;20662;-71
2023/10/12 07:17:51;;;;;;;7.40;1.70;;;;;;;;;;5044956;28;20238;-71
2023/10/12 07:22:56;;;;;;;11.25;1.75;;;;;;;;;;5038874;28;20672;-72
2023/10/12 07:25:23;;;;;;;11.45;1.90;;;;;;;;;;5049590;28;20224;-72
2023/10/12 07:27:56;;;;;;;9.63;1.50;;;;;;;;;;5045359;28;20180;-72
2023/10/12 07:30:32;;;;;;;15.18;2.03;;;;;;;;;;5049399;28;20665;-72
2023/10/12 07:33:04;;;;;;;12.00;1.77;;;;;;;;;;5035259;28;20185;-72
2023/10/12 07:35:36;;;;;;;15.30;2.22;;;;;;;;;;5048033;28;20286;-72
2023/10/12 07:38:12;;;;;;;11.98;1.45;;;;;;;;;;5080684;28;20777;-73
2023/10/12 07:40:56;;;;;;;12.63;1.80;;;;;;;;;;5042811;28;20188;-73
2023/10/12 07:43:23;;;;;;;11.35;2.40;;;;;;;;;;5078731;28;20656;-72
2023/10/12 07:45:49;;;;;;;12.07;2.08;;;;;;;;;;5042814;28;20269;-72
2023/10/12 07:48:31;;;;;;;13.20;1.88;;;;;;;;;;5039997;28;20577;-72
2023/10/12 07:51:15;;;;;;;7.70;1.20;;;;;;;;;;5042612;28;20182;-72
2023/10/12 07:53:44;;;;;;;7.85;1.42;;;;;;;;;;5047976;28;20192;-72
2023/10/12 07:56:15;;;;;;;10.02;2.00;;;;;;;;;;5043011;28;20539;-72
2023/10/12 07:58:42;;;;;;;7.43;1.63;;;;;;;;;;5045213;28;20299;-72
2023/10/12 08:01:26;;;;;;;10.07;2.22;;;;;;;;;;5045983;28;20202;-72
2023/10/12 08:03:52;;;;;;;10.70;1.67;;;;;;;;;;5040137;28;20192;-72
2023/10/12 08:09:10;;;;;;;10.77;1.90;;;;;;;;;;5048017;28;20180;-72
2023/10/12 08:11:39;;;;;;;7.95;1.60;;;;;;;;;;5088346;28;20540;-72
2023/10/12 08:14:39;;;;;;;6.47;1.75;;;;;;;;;;5054043;28;20253;-72
2023/10/12 08:19:56;;;;;;;6.68;1.50;;;;;;;;;;5032675;28;20196;-72
2023/10/12 08:22:31;;;;;;;6.20;1.38;;;;;;;;;;5038472;28;20190;-69
2023/10/12 08:24:58;;;;;;;10.98;1.80;;;;;;;;;;5037928;28;20208;-72
2023/10/12 08:27:25;;;;;;;11.45;1.63;;;;;;;;;;5041663;28;20189;-72
2023/10/12 08:32:29;;;;;;;11.15;1.30;;;;;;;;;;5041787;28;20217;-72
2023/10/12 08:37:26;;;;;;;10.02;1.80;;;;;;;;;;5053714;28;20698;-72
2023/10/12 08:40:07;;;;;;;7.15;1.50;;;;;;;;;;5051991;28;20201;-72
2023/10/12 08:45:09;;;;;;;6.10;1.13;;;;;;;;;;5056420;28;20207;-72
2023/10/12 08:50:08;;;;;;;7.78;1.60;;;;;;;;;;5052683;28;20839;-73
2023/10/12 08:52:38;;;;;;;10.43;1.55;;;;;;;;;;5043239;28;20192;-73
2023/10/12 08:55:13;;;;;;;6.95;1.60;;;;;;;;;;5043318;28;20262;-73
2023/10/12 08:57:55;;;;;;;10.00;1.50;;;;;;;;;;5074065;28;20541;-73
2023/10/12 09:03:07;;;;;;;8.35;1.77;;;;;;;;;;5053718;28;20578;-73
2023/10/12 09:05:35;;;;;;;8.02;1.50;;;;;;;;;;5038420;28;20260;-72
2023/10/12 09:13:25;;;;;;;11.75;1.90;;;;;;;;;;5062155;28;20238;-72
2023/10/12 09:15:54;;;;;;;11.75;1.70;;;;;;;;;;5056089;28;20190;-72
2023/10/12 09:18:21;;;;;;;9.10;2.00;;;;;;;;;;5046337;28;20491;-72
2023/10/12 09:28:51;;;;;;;8.90;1.80;;;;;;;;;;5051326;28;20191;-72
2023/10/12 09:36:28;;;;;;;8.18;2.60;;;;;;;;;;5045798;28;20182;-73
2023/10/12 09:38:57;;;;;;;9.32;2.75;;;;;;;;;;5041159;28;20297;-73
2023/10/12 09:41:33;;;;;;;9.38;2.70;;;;;;;;;;5052032;28;20197;-73
2023/10/12 09:44:06;;;;;;;13.00;3.20;;;;;;;;;;5057758;28;20299;-72
2023/10/12 09:46:34;;;;;;;11.73;3.30;;;;;;;;;;5054508;28;20305;-73
2023/10/12 09:49:06;;;;;;;14.13;3.10;;;;;;;;;;5040954;28;20193;-73
2023/10/12 09:51:47;;;;;;;9.35;3.05;;;;;;;;;;5030910;28;20281;-73
2023/10/12 09:54:27;;;;;;;15.02;2.92;;;;;;;;;;5032735;28;20189;-73
2023/10/12 09:57:04;;;;;;;12.07;2.20;;;;;;;;;;5051822;28;20550;-73
2023/10/12 09:59:31;;;;;;;12.23;2.67;;;;;;;;;;5056274;28;20653;-72
2023/10/12 10:02:06;;;;;;;13.95;2.30;;;;;;;;;;5048655;28;20209;-72
2023/10/12 10:04:34;;;;;;;10.23;2.13;;;;;;;;;;5041045;28;20696;-72
2023/10/12 10:07:25;;;;;;;10.68;2.40;;;;;;;;;;5040572;28;20197;-72
2023/10/12 10:09:58;;;;;;;10.10;2.53;;;;;;;;;;5042823;28;20547;-72
2023/10/12 10:12:27;;;;;;;10.98;2.47;;;;;;;;;;5055275;28;20559;-72
2023/10/12 10:14:54;;;;;;;14.50;2.53;;;;;;;;;;5072647;28;20207;-72
2023/10/12 10:17:35;;;;;;;10.65;2.88;;;;;;;;;;5077604;28;20353;-72
2023/10/12 10:23:01;;;;;;;6.93;2.10;;;;;;;;;;5042736;28;20183;-72
2023/10/12 10:25:50;;;;;;;8.93;1.80;;;;;;;;;;5054269;28;20612;-72
2023/10/12 10:28:27;;;;;;;9.07;2.42;;;;;;;;;;5040201;28;20267;-72
2023/10/12 10:30:56;;;;;;;9.73;1.70;;;;;;;;;;5042364;28;20188;-72
2023/10/12 10:33:23;;;;;;;15.77;2.10;;;;;;;;;;5041284;28;20181;-72
2023/10/12 10:35:59;;;;;;;10.50;2.20;;;;;;;;;;5054479;28;20516;-70
2023/10/12 10:38:32;;;;;;;11.57;1.80;;;;;;;;;;5047286;28;20228;-71
2023/10/12 10:43:56;;;;;;;10.65;1.65;;;;;;;;;;5042807;28;20207;-71
2023/10/12 10:46:26;;;;;;;7.13;1.73;;;;;;;;;;5054284;28;20663;-71
2023/10/12 10:48:52;;;;;;;13.05;1.77;;;;;;;;;;5053218;28;20184;-71
2023/10/12 10:51:19;;;;;;;13.45;1.65;;;;;;;;;;5050094;28;20718;-71
2023/10/12 10:53:54;;;;;;;9.82;1.80;;;;;;;;;;5066368;28;20277;-72
2023/10/12 10:56:36;;;;;;;9.52;1.83;;;;;;;;;;5056647;28;20187;-72
2023/10/12 10:59:05;;;;;;;7.18;1.83;;;;;;;;;;5047600;28;20296;-71
2023/10/12 11:01:30;;;;;;;10.82;1.50;;;;;;;;;;5038448;28;20598;-71
2023/10/12 11:03:58;;;;;;;11.43;1.60;;;;;;;;;;5048067;28;20220;-71
2023/10/12 11:06:27;;;;;;;11.52;2.10;;;;;;;;;;5040254;28;20214;-72
2023/10/12 11:09:06;;;;;;;14.73;2.17;;;;;;;;;;5042483;28;20236;-72
2023/10/12 11:11:37;;;;;;;11.80;2.25;;;;;;;;;;5071795;28;20197;-71
2023/10/12 11:14:04;;;;;;;7.82;1.40;;;;;;;;;;5052897;28;20649;-71
2023/10/12 11:16:30;;;;;;;12.48;1.77;;;;;;;;;;5064307;28;20197;-71
2023/10/12 11:18:57;;;;;;;8.45;1.55;;;;;;;;;;5059651;28;20208;-71
2023/10/12 11:21:25;;;;;;;13.75;1.60;;;;;;;;;;5059722;28;20612;-71
2023/10/12 11:24:01;;;;;;;8.00;1.50;;;;;;;;;;5045013;28;20551;-71
2023/10/12 11:26:26;;;;;;;8.48;2.20;;;;;;;;;;5046825;28;20595;-72
2023/10/12 11:29:04;;;;;;;13.27;1.90;;;;;;;;;;5059992;28;20213;-73
2023/10/12 11:31:32;;;;;;;11.50;2.38;;;;;;;;;;5046161;28;20197;-71
2023/10/12 11:34:07;;;;;;;13.27;2.30;;;;;;;;;;5058788;28;20186;-72
2023/10/12 11:36:35;;;;;;;10.77;2.05;;;;;;;;;;5048602;28;20276;-72
2023/10/12 11:39:16;;;;;;;9.80;1.80;;;;;;;;;;5045910;28;20322;-72
2023/10/12 11:42:02;;;;;;;14.48;2.10;;;;;;;;;;5047613;28;20189;-72
2023/10/12 11:44:32;;;;;;;13.77;2.00;;;;;;;;;;5050109;28;20683;-72
2023/10/12 11:46:59;;;;;;;10.52;1.60;;;;;;;;;;5046277;28;20205;-72
2023/10/12 11:49:24;;;;;;;13.98;1.80;;;;;;;;;;5040053;28;20174;-72
2023/10/12 11:51:53;;;;;;;12.15;1.38;;;;;;;;;;5090717;28;20272;-71
2023/10/12 11:54:27;;;;;;;8.27;1.55;;;;;;;;;;5069839;28;20559;-72
2023/10/12 11:56:53;;;;;;;7.68;1.80;;;;;;;;;;5044020;28;20597;-72
2023/10/12 11:59:30;;;;;;;13.07;2.00;;;;;;;;;;5044813;28;20251;-72
2023/10/12 12:02:00;;;;;;;9.23;1.70;;;;;;;;;;5055979;28;20202;-71
2023/10/12 12:04:39;;;;;;;7.35;2.20;;;;;;;;;;5049187;28;20664;-72
2023/10/12 12:07:10;;;;;;;13.80;2.22;;;;;;;;;;5054201;28;20675;-72
2023/10/12 12:09:44;;;;;;;8.23;1.90;;;;;;;;;;5037154;28;20486;-72
2023/10/12 12:12:12;;;;;;;7.32;1.50;;;;;;;;;;5049224;28;20231;-72
2023/10/12 12:14:39;;;;;;;7.93;1.45;;;;;;;;;;5048369;28;20268;-72
2023/10/12 12:17:04;;;;;;;11.52;2.03;;;;;;;;;;5051159;28;20304;-72
2023/10/12 12:19:33;;;;;;;14.80;2.15;;;;;;;;;;5046241;28;20230;-71
2023/10/12 12:21:59;;;;;;;9.45;1.58;;;;;;;;;;5036949;28;20259;-71
2023/10/12 12:24:25;;;;;;;12.65;2.17;;;;;;;;;;5049245;28;20708;-71
2023/10/12 12:26:54;;;;;;;12.10;1.92;;;;;;;;;;5045464;28;20520;-72
2023/10/12 12:29:26;;;;;;;12.13;1.95;;;;;;;;;;5073342;28;20216;-72
2023/10/12 12:31:56;;;;;;;9.38;1.95;;;;;;;;;;5046463;28;20602;-72
2023/10/12 12:34:38;;;;;;;10.13;2.00;;;;;;;;;;5030656;28;20624;-72
2023/10/12 12:37:05;;;;;;;13.10;2.10;;;;;;;;;;5036258;28;20268;-72
2023/10/12 12:39:33;;;;;;;9.35;1.80;;;;;;;;;;5081251;28;20621;-72
2023/10/12 12:41:59;;;;;;;13.02;2.67;;;;;;;;;;5033737;28;20186;-72
2023/10/12 12:44:24;;;;;;;14.98;2.05;;;;;;;;;;5084658;28;20192;-73
2023/10/12 12:46:50;;;;;;;9.98;2.20;;;;;;;;;;5047448;28;20189;-73
2023/10/12 12:49:15;;;;;;;13.40;2.08;;;;;;;;;;5044843;28;20699;-72
2023/10/12 12:51:40;;;;;;;13.18;2.17;;;;;;;;;;5030977;28;20683;-72
2023/10/12 12:54:06;;;;;;;14.13;2.65;;;;;;;;;;5040276;28;20209;-72
2023/10/12 12:56:31;;;;;;;14.23;2.42;;;;;;;;;;5048277;28;20247;-72
2023/10/12 12:58:57;;;;;;;14.52;3.38;;;;;;;;;;5049010;28;20633;-72
2023/10/12 13:01:23;;;;;;;18.67;2.88;;;;;;;;;;5034737;28;20255;-72
2023/10/12 13:03:52;;;;;;;16.42;2.88;;;;;;;;;;5045577;28;20270;-72
2023/10/12 13:06:17;;;;;;;14.55;3.30;;;;;;;;;;5056498;28;20589;-72
2023/10/12 13:08:43;;;;;;;7.70;2.70;;;;;;;;;;5039749;28;20196;-72
2023/10/12 13:11:11;;;;;;;10.73;2.53;;;;;;;;;;5056295;28;20181;-72
2023/10/12 13:13:39;;;;;;;9.02;2.90;;;;;;;;;;5053593;28;20217;-71
2023/10/12 13:16:11;;;;;;;14.27;3.22;;;;;;;;;;5050893;28;20268;-71
2023/10/12 13:18:38;;;;;;;11.02;3.08;;;;;;;;;;5045733;28;20229;-72
2023/10/12 13:21:07;;;;;;;10.57;3.33;;;;;;;;;;5043708;28;20280;-72
2023/10/12 13:23:34;;;;;;;13.52;2.90;;;;;;;;;;5059903;28;20671;-72
2023/10/12 13:26:07;;;;;;;12.77;3.40;;;;;;;;;;5058048;28;20204;-73
2023/10/12 13:28:33;;;;;;;11.95;2.70;;;;;;;;;;5060017;28;20281;-73
2023/10/12 13:30:58;;;;;;;12.07;3.15;;;;;;;;;;5049408;28;20185;-73
2023/10/12 13:33:27;;;;;;;10.85;2.78;;;;;;;;;;5056685;28;20253;-73
2023/10/12 13:35:56;;;;;;;17.67;3.20;;;;;;;;;;5057951;28;20220;-73
2023/10/12 13:38:21;;;;;;;16.13;3.40;;;;;;;;;;5041855;28;20304;-73
2023/10/12 13:40:48;;;;;;;18.50;3.30;;;;;;;;;;5086790;28;20598;-72
2023/10/12 13:43:32;;;;;;;15.55;3.45;;;;;;;;;;5047207;28;20243;-73
2023/10/12 13:46:07;;;;;;;14.77;3.60;;;;;;;;;;5086724;28;20185;-72
2023/10/12 13:48:37;;;;;;;19.08;3.72;;;;;;;;;;5038975;28;20200;-72
2023/10/12 13:51:08;;;;;;;15.40;3.47;;;;;;;;;;5056337;28;20528;-73
2023/10/12 13:53:38;;;;;;;15.15;3.80;;;;;;;;;;5045153;28;20213;-73
2023/10/12 13:56:08;;;;;;;8.32;3.33;;;;;;;;;;5054309;28;20224;-73
2023/10/12 13:58:38;;;;;;;12.93;4.15;;;;;;;;;;5045519;28;20225;-73
2023/10/12 14:01:05;;;;;;;15.35;4.38;;;;;;;;;;5045189;28;20200;-73
2023/10/12 14:03:41;;;;;;;13.68;4.88;;;;;;;;;;5049054;28;20264;-72
2023/10/12 14:06:07;;;;;;;17.13;5.60;;;;;;;;;;5042089;28;20181;-72
2023/10/12 14:08:35;;;;;;;15.60;5.40;;;;;;;;;;5058968;28;20184;-72
2023/10/12 14:11:04;;;;;;;13.48;5.60;;;;;;;;;;5054571;28;20228;-73
2023/10/12 14:13:31;;;;;;;14.10;6.05;;;;;;;;;;5042221;28;20324;-72
2023/10/12 14:15:57;;;;;;;14.88;6.05;;;;;;;;;;5052443;28;20209;-73
2023/10/12 14:18:22;;;;;;;16.15;6.03;;;;;;;;;;5046435;28;20748;-72
2023/10/12 14:20:49;;;;;;;15.93;7.22;;;;;;;;;;5083845;28;20197;-72
2023/10/12 14:23:15;;;;;;;13.48;6.65;;;;;;;;;;5045105;28;20557;-73
2023/10/12 14:25:43;;;;;;;11.63;6.50;;;;;;;;;;5043184;28;20707;-74
2023/10/12 14:28:17;;;;;;;13.90;7.10;;;;;;;;;;5042751;28;20186;-73
2023/10/12 14:30:50;;;;;;;12.52;6.53;;;;;;;;;;5080100;28;20448;-73
2023/10/12 14:33:18;;;;;;;13.93;6.50;;;;;;;;;;5048094;28;20181;-73
2023/10/12 14:35:45;;;;;;;12.73;6.53;;;;;;;;;;5085826;28;20216;-73
2023/10/12 14:38:14;;;;;;;11.35;6.18;;;;;;;;;;5089141;28;20216;-73
2023/10/12 14:40:41;;;;;;;9.25;6.03;;;;;;;;;;5043680;28;20288;-73
2023/10/12 14:43:10;;;;;;;13.35;6.57;;;;;;;;;;5039932;28;20201;-73
2023/10/12 14:45:38;;;;;;;15.65;6.43;;;;;;;;;;5037462;28;20231;-73
2023/10/12 14:48:10;;;;;;;9.07;6.65;;;;;;;;;;5037772;28;20193;-73
2023/10/12 14:50:45;;;;;;;11.57;6.45;;;;;;;;;;5082567;28;20258;-73
2023/10/12 14:53:21;;;;;;;11.30;7.63;;;;;;;;;;5057905;28;20181;-73
2023/10/12 14:55:52;;;;;;;15.88;8.23;;;;;;;;;;5071301;28;20213;-72
2023/10/12 14:58:19;;;;;;;13.00;7.65;;;;;;;;;;5045358;28;20640;-73
2023/10/12 15:00:45;;;;;;;14.13;7.85;;;;;;;;;;5056112;28;20205;-74
2023/10/12 15:03:21;;;;;;;13.02;8.32;;;;;;;;;;5067059;28;20189;-75
2023/10/12 15:05:51;;;;;;;14.07;7.90;;;;;;;;;;5048743;28;20703;-73
2023/10/12 15:08:17;;;;;;;15.32;8.85;;;;;;;;;;5063251;28;20178;-75
2023/10/12 15:10:43;;;;;;;13.90;9.18;;;;;;;;;;5072172;28;20184;-74
2023/10/12 15:13:16;;;;;;;13.68;9.50;;;;;;;;;;5051421;28;20201;-73
2023/10/12 15:15:45;;;;;;;16.85;10.85;;;;;;;;;;5054199;28;20239;-73
2023/10/12 15:18:15;;;;;;;17.98;10.32;;;;;;;;;;5057468;28;20337;-74
2023/10/12 15:20:43;;;;;;;15.30;10.43;;;;;;;;;;5054305;28;20549;-73
2023/10/12 15:23:08;;;;;;;17.02;10.23;;;;;;;;;;5046144;28;20188;-73
2023/10/12 15:25:34;;;;;;;16.85;10.52;;;;;;;;;;5051801;28;20251;-73
2023/10/12 15:28:01;;;;;;;16.15;11.50;;;;;;;;;;5048695;28;20181;-73
2023/10/12 15:30:26;;;;;;;17.00;11.07;;;;;;;;;;5040850;28;20649;-73
2023/10/12 15:32:54;;;;;;;18.15;10.93;;;;;;;;;;5046563;28;20185;-73
2023/10/12 15:35:23;;;;;;;16.67;12.70;;;;;;;;;;5052305;28;20186;-72
2023/10/12 15:37:51;;;;;;;26.00;12.35;;;;;;;;;;5059282;28;20244;-72
2023/10/12 15:40:18;;;;;;;17.15;12.48;;;;;;;;;;5045207;28;20193;-72
2023/10/12 15:42:47;;;;;;;19.65;12.05;;;;;;;;;;5045099;28;20662;-72
2023/10/12 15:45:14;;;;;;;24.98;14.43;;;;;;;;;;5042089;28;20186;-72
2023/10/12 15:47:40;;;;;;;17.10;13.02;;;;;;;;;;5043150;28;20299;-72
2023/10/12 15:50:05;;;;;;;18.10;12.90;;;;;;;;;;5046204;28;20368;-73
2023/10/12 15:52:31;;;;;;;18.38;13.55;;;;;;;;;;5047952;28;20193;-72
2023/10/12 15:54:57;;;;;;;21.95;14.32;;;;;;;;;;5045520;28;20292;-71
2023/10/12 15:57:23;;;;;;;20.63;13.07;;;;;;;;;;5050957;28;20235;-71
2023/10/12 15:59:48;;;;;;;20.83;13.63;;;;;;;;;;5052973;28;20605;-72
2023/10/12 16:02:14;;;;;;;18.20;12.77;;;;;;;;;;5041000;28;20220;-72
2023/10/12 16:04:45;;;;;;;24.67;13.57;;;;;;;;;;5042417;28;20194;-72
2023/10/12 16:07:16;;;;;;;19.92;13.93;;;;;;;;;;5074857;28;20194;-72
2023/10/12 16:09:46;;;;;;;21.80;13.77;;;;;;;;;;5068608;28;20634;-72
2023/10/12 16:12:17;;;;;;;22.48;13.43;;;;;;;;;;5049487;28;20186;-72
2023/10/12 16:14:50;;;;;;;18.35;13.75;;;;;;;;;;5058405;28;20220;-73
2023/10/12 16:17:22;;;;;;;20.63;12.77;;;;;;;;;;5031366;28;20221;-72
2023/10/12 16:19:51;;;;;;;19.58;12.95;;;;;;;;;;5046786;28;20220;-72
2023/10/12 16:22:21;;;;;;;20.05;12.80;;;;;;;;;;5047005;28;20204;-72
2023/10/12 16:24:47;;;;;;;15.48;10.95;;;;;;;;;;5029520;28;20193;-72
2023/10/12 16:27:12;;;;;;;21.00;12.98;;;;;;;;;;5049309;28;20181;-72